createdAt,value
2022-11-28T00:00:03.000Z,0
2022-11-28T00:01:20.000Z,0
2022-11-28T00:02:36.000Z,0
2022-11-28T00:03:52.000Z,0
2022-11-28T00:05:08.000Z,0
2022-11-28T00:06:24.000Z,0
2022-11-28T00:07:41.000Z,0
2022-11-28T00:08:57.000Z,0
2022-11-28T00:10:13.000Z,0
2022-11-28T00:11:29.000Z,0
2022-11-28T00:12:45.000Z,0
2022-11-28T00:14:01.000Z,0
2022-11-28T00:15:18.000Z,0
2022-11-28T00:16:34.000Z,0
2022-11-28T00:17:49.000Z,0
2022-11-28T00:19:05.000Z,0
2022-11-28T00:20:21.000Z,0
2022-11-28T00:21:38.000Z,0
2022-11-28T00:22:54.000Z,0
2022-11-28T00:24:10.000Z,0
2022-11-28T00:25:26.000Z,0
2022-11-28T00:26:42.000Z,0
2022-11-28T00:27:59.000Z,0
2022-11-28T00:29:15.000Z,0
2022-11-28T00:30:31.000Z,0
2022-11-28T00:31:47.000Z,0
2022-11-28T00:33:03.000Z,0
2022-11-28T00:34:20.000Z,0
2022-11-28T00:35:36.000Z,0
2022-11-28T00:36:52.000Z,0
2022-11-28T00:38:08.000Z,0
2022-11-28T00:39:24.000Z,0
2022-11-28T00:40:40.000Z,0
2022-11-28T00:41:57.000Z,0
2022-11-28T00:43:13.000Z,0
2022-11-28T00:44:29.000Z,0
2022-11-28T00:45:45.000Z,0
2022-11-28T00:47:01.000Z,0
2022-11-28T00:48:18.000Z,0
2022-11-28T00:49:33.000Z,0
2022-11-28T00:50:49.000Z,0
2022-11-28T00:52:05.000Z,0
2022-11-28T00:53:21.000Z,0
2022-11-28T00:54:38.000Z,0
2022-11-28T00:55:54.000Z,0
2022-11-28T00:57:10.000Z,0
2022-11-28T00:58:26.000Z,0
2022-11-28T00:59:42.000Z,0
2022-11-28T01:00:58.000Z,0
2022-11-28T01:02:15.000Z,0
2022-11-28T01:03:31.000Z,0
2022-11-28T01:04:47.000Z,0
2022-11-28T01:06:03.000Z,0
2022-11-28T01:07:19.000Z,0
2022-11-28T01:08:36.000Z,0
2022-11-28T01:09:52.000Z,0
2022-11-28T01:11:08.000Z,0
2022-11-28T01:12:24.000Z,0
2022-11-28T01:13:39.000Z,0
2022-11-28T01:14:56.000Z,0
2022-11-28T01:16:12.000Z,0
2022-11-28T01:17:28.000Z,0
2022-11-28T01:18:44.000Z,0
2022-11-28T01:20:00.000Z,0
2022-11-28T01:21:16.000Z,0
2022-11-28T01:22:33.000Z,0
2022-11-28T01:23:49.000Z,0
2022-11-28T01:25:05.000Z,0
2022-11-28T01:26:21.000Z,0
2022-11-28T01:27:37.000Z,0
2022-11-28T01:28:54.000Z,0
2022-11-28T01:30:10.000Z,0
2022-11-28T01:31:26.000Z,0
2022-11-28T01:32:42.000Z,0
2022-11-28T01:33:57.000Z,0
2022-11-28T01:35:14.000Z,0
2022-11-28T01:36:30.000Z,0
2022-11-28T01:37:46.000Z,0
2022-11-28T01:39:02.000Z,0
2022-11-28T01:40:18.000Z,0
2022-11-28T01:41:35.000Z,0
2022-11-28T01:42:51.000Z,0
2022-11-28T01:44:07.000Z,0
2022-11-28T01:45:23.000Z,0
2022-11-28T01:46:39.000Z,0
2022-11-28T01:47:55.000Z,0
2022-11-28T01:49:12.000Z,0
2022-11-28T01:50:28.000Z,0
2022-11-28T01:51:44.000Z,0
2022-11-28T01:53:00.000Z,0
2022-11-28T01:54:16.000Z,0
2022-11-28T01:55:32.000Z,0
2022-11-28T01:56:48.000Z,0
2022-11-28T01:58:04.000Z,0
2022-11-28T01:59:20.000Z,0
2022-11-28T02:00:36.000Z,0
2022-11-28T02:01:53.000Z,0
2022-11-28T02:03:09.000Z,0
2022-11-28T02:04:25.000Z,0
2022-11-28T02:05:41.000Z,0
2022-11-28T02:06:57.000Z,0
2022-11-28T02:08:13.000Z,0
2022-11-28T02:09:30.000Z,0
2022-11-28T02:10:46.000Z,0
2022-11-28T02:12:02.000Z,0
2022-11-28T02:13:18.000Z,0
2022-11-28T02:14:33.000Z,0
2022-11-28T02:15:50.000Z,0
2022-11-28T02:17:06.000Z,0
2022-11-28T02:18:22.000Z,0
2022-11-28T02:19:38.000Z,0
2022-11-28T02:20:54.000Z,0
2022-11-28T02:22:11.000Z,0
2022-11-28T02:23:27.000Z,0
2022-11-28T02:24:43.000Z,0
2022-11-28T02:25:59.000Z,0
2022-11-28T02:27:15.000Z,0
2022-11-28T02:28:31.000Z,0
2022-11-28T02:29:48.000Z,0
2022-11-28T02:31:04.000Z,0
2022-11-28T02:32:20.000Z,0
2022-11-28T02:33:36.000Z,0
2022-11-28T02:34:52.000Z,0
2022-11-28T02:36:09.000Z,0
2022-11-28T02:37:25.000Z,0
2022-11-28T02:38:41.000Z,0
2022-11-28T02:39:57.000Z,0
2022-11-28T02:41:12.000Z,0
2022-11-28T02:42:29.000Z,0
2022-11-28T02:43:45.000Z,0
2022-11-28T02:45:01.000Z,0
2022-11-28T02:46:17.000Z,0
2022-11-28T02:47:33.000Z,0
2022-11-28T02:48:49.000Z,0
2022-11-28T02:50:06.000Z,0
2022-11-28T02:51:22.000Z,0
2022-11-28T02:52:38.000Z,0
2022-11-28T02:53:54.000Z,0
2022-11-28T02:55:10.000Z,0
2022-11-28T02:56:27.000Z,0
2022-11-28T02:57:43.000Z,0
2022-11-28T02:58:59.000Z,0
2022-11-28T03:00:15.000Z,0
2022-11-28T03:01:31.000Z,0
2022-11-28T03:02:48.000Z,0
2022-11-28T03:04:04.000Z,0
2022-11-28T03:05:20.000Z,0
2022-11-28T03:06:35.000Z,0
2022-11-28T03:07:51.000Z,0
2022-11-28T03:09:08.000Z,0
2022-11-28T03:10:24.000Z,0
2022-11-28T03:11:40.000Z,0
2022-11-28T03:12:56.000Z,0
2022-11-28T03:14:12.000Z,0
2022-11-28T03:15:28.000Z,0
2022-11-28T03:16:45.000Z,0
2022-11-28T03:18:01.000Z,0
2022-11-28T03:19:17.000Z,0
2022-11-28T03:20:33.000Z,0
2022-11-28T03:21:49.000Z,0
2022-11-28T03:23:06.000Z,0
2022-11-28T03:24:22.000Z,0
2022-11-28T03:25:38.000Z,0
2022-11-28T03:26:54.000Z,0
2022-11-28T03:28:10.000Z,0
2022-11-28T03:29:27.000Z,0
2022-11-28T03:30:43.000Z,0
2022-11-28T03:31:59.000Z,0
2022-11-28T03:33:14.000Z,0
2022-11-28T03:34:30.000Z,0
2022-11-28T03:35:46.000Z,0
2022-11-28T03:37:03.000Z,0
2022-11-28T03:38:19.000Z,0
2022-11-28T03:39:35.000Z,0
2022-11-28T03:40:51.000Z,0
2022-11-28T03:42:07.000Z,0
2022-11-28T03:43:24.000Z,0
2022-11-28T03:44:40.000Z,0
2022-11-28T03:45:56.000Z,0
2022-11-28T03:47:12.000Z,0
2022-11-28T03:48:28.000Z,0
2022-11-28T03:49:45.000Z,0
2022-11-28T03:51:01.000Z,0
2022-11-28T03:52:17.000Z,0
2022-11-28T03:53:33.000Z,0
2022-11-28T03:54:49.000Z,0
2022-11-28T03:56:05.000Z,0
2022-11-28T03:57:22.000Z,0
2022-11-28T03:58:38.000Z,0
2022-11-28T03:59:54.000Z,0
2022-11-28T04:01:09.000Z,0
2022-11-28T04:02:25.000Z,0
2022-11-28T04:03:42.000Z,0
2022-11-28T04:04:58.000Z,0
2022-11-28T04:06:14.000Z,0
2022-11-28T04:07:30.000Z,0
2022-11-28T04:08:46.000Z,0
2022-11-28T04:10:03.000Z,0
2022-11-28T04:11:19.000Z,0
2022-11-28T04:12:35.000Z,0
2022-11-28T04:13:51.000Z,0
2022-11-28T04:15:07.000Z,0
2022-11-28T04:16:24.000Z,0
2022-11-28T04:17:39.000Z,0
2022-11-28T04:18:55.000Z,0
2022-11-28T04:20:11.000Z,0
2022-11-28T04:21:27.000Z,0
2022-11-28T04:22:43.000Z,0
2022-11-28T04:24:00.000Z,0
2022-11-28T04:25:16.000Z,0
2022-11-28T04:26:32.000Z,0
2022-11-28T04:27:48.000Z,0
2022-11-28T04:29:04.000Z,0
2022-11-28T04:30:21.000Z,0
2022-11-28T04:31:37.000Z,0
2022-11-28T04:32:53.000Z,0
2022-11-28T04:34:09.000Z,0
2022-11-28T04:35:24.000Z,0
2022-11-28T04:36:41.000Z,0
2022-11-28T04:37:57.000Z,0
2022-11-28T04:39:13.000Z,0
2022-11-28T04:40:29.000Z,0
2022-11-28T04:41:45.000Z,0
2022-11-28T04:43:01.000Z,0
2022-11-28T04:44:18.000Z,0
2022-11-28T04:45:34.000Z,0
2022-11-28T04:46:50.000Z,0
2022-11-28T04:48:06.000Z,0
2022-11-28T04:49:22.000Z,0
2022-11-28T04:50:39.000Z,0
2022-11-28T04:51:54.000Z,0
2022-11-28T04:53:10.000Z,0
2022-11-28T04:54:26.000Z,0
2022-11-28T04:55:42.000Z,0
2022-11-28T04:56:59.000Z,0
2022-11-28T04:58:15.000Z,0
2022-11-28T04:59:31.000Z,0
2022-11-28T05:00:47.000Z,0
2022-11-28T05:02:03.000Z,0
2022-11-28T05:03:19.000Z,0
2022-11-28T05:04:36.000Z,0
2022-11-28T05:05:52.000Z,0
2022-11-28T05:07:08.000Z,0
2022-11-28T05:08:24.000Z,0
2022-11-28T05:09:40.000Z,0
2022-11-28T05:10:56.000Z,0
2022-11-28T05:12:12.000Z,0
2022-11-28T05:13:28.000Z,0
2022-11-28T05:14:44.000Z,0
2022-11-28T05:16:00.000Z,0
2022-11-28T05:17:17.000Z,0
2022-11-28T05:18:33.000Z,0
2022-11-28T05:19:49.000Z,0
2022-11-28T05:21:05.000Z,0
2022-11-28T05:22:21.000Z,0
2022-11-28T05:23:38.000Z,0
2022-11-28T05:24:54.000Z,0
2022-11-28T05:26:10.000Z,0
2022-11-28T05:27:26.000Z,0
2022-11-28T05:28:41.000Z,0
2022-11-28T05:29:57.000Z,0
2022-11-28T05:31:14.000Z,0
2022-11-28T05:32:30.000Z,0
2022-11-28T05:33:46.000Z,0
2022-11-28T05:35:02.000Z,0
2022-11-28T05:36:18.000Z,0
2022-11-28T05:37:35.000Z,0
2022-11-28T05:38:51.000Z,0
2022-11-28T05:40:07.000Z,0
2022-11-28T05:41:23.000Z,0
2022-11-28T05:42:39.000Z,0
2022-11-28T05:43:56.000Z,0
2022-11-28T05:45:11.000Z,0
2022-11-28T05:46:27.000Z,0
2022-11-28T05:47:43.000Z,0
2022-11-28T05:48:59.000Z,0
2022-11-28T05:50:15.000Z,0
2022-11-28T05:51:32.000Z,0
2022-11-28T05:52:48.000Z,0
2022-11-28T05:54:04.000Z,0
2022-11-28T05:55:20.000Z,0
2022-11-28T05:56:36.000Z,0
2022-11-28T05:57:53.000Z,0
2022-11-28T05:59:09.000Z,0
2022-11-28T06:00:25.000Z,0
2022-11-28T06:01:41.000Z,0
2022-11-28T06:02:56.000Z,0
2022-11-28T06:04:13.000Z,0
2022-11-28T06:05:29.000Z,0
2022-11-28T06:06:45.000Z,0
2022-11-28T06:08:01.000Z,0
2022-11-28T06:09:17.000Z,0
2022-11-28T06:10:34.000Z,0
2022-11-28T06:11:50.000Z,0
2022-11-28T06:13:06.000Z,0
2022-11-28T06:14:22.000Z,0
2022-11-28T06:15:38.000Z,0
2022-11-28T06:16:54.000Z,0
2022-11-28T06:18:11.000Z,0
2022-11-28T06:19:27.000Z,0
2022-11-28T06:20:43.000Z,0
2022-11-28T06:21:59.000Z,0
2022-11-28T06:23:15.000Z,0
2022-11-28T06:24:32.000Z,0
2022-11-28T06:25:48.000Z,0
2022-11-28T06:27:04.000Z,0
2022-11-28T06:28:20.000Z,0
2022-11-28T06:29:35.000Z,0
2022-11-28T06:30:52.000Z,0
2022-11-28T06:32:08.000Z,0
2022-11-28T06:33:24.000Z,0
2022-11-28T06:34:40.000Z,0
2022-11-28T06:35:56.000Z,0
2022-11-28T06:37:12.000Z,0
2022-11-28T06:38:29.000Z,0
2022-11-28T06:39:45.000Z,0
2022-11-28T06:41:01.000Z,0
2022-11-28T06:42:17.000Z,0
2022-11-28T06:43:33.000Z,0
2022-11-28T06:44:50.000Z,4
2022-11-28T06:46:06.000Z,4
2022-11-28T06:47:22.000Z,0
2022-11-28T06:48:38.000Z,4
2022-11-28T06:49:54.000Z,4
2022-11-28T06:51:11.000Z,4
2022-11-28T06:52:26.000Z,4
2022-11-28T06:53:42.000Z,8
2022-11-28T06:54:58.000Z,8
2022-11-28T06:56:14.000Z,8
2022-11-28T06:57:30.000Z,12
2022-11-28T06:58:47.000Z,12
2022-11-28T07:00:03.000Z,12
2022-11-28T07:01:19.000Z,12
2022-11-28T07:02:35.000Z,20
2022-11-28T07:03:51.000Z,24
2022-11-28T07:05:08.000Z,28
2022-11-28T07:06:24.000Z,32
2022-11-28T07:07:40.000Z,32
2022-11-28T07:08:55.000Z,36
2022-11-28T07:10:11.000Z,48
2022-11-28T07:11:28.000Z,60
2022-11-28T07:12:44.000Z,68
2022-11-28T07:14:00.000Z,80
2022-11-28T07:15:16.000Z,92
2022-11-28T07:16:32.000Z,100
2022-11-28T07:17:48.000Z,104
2022-11-28T07:19:05.000Z,112
2022-11-28T07:20:21.383Z,116
2022-11-28T07:21:37.000Z,124
2022-11-28T07:22:53.000Z,132
2022-11-28T07:24:09.000Z,140
2022-11-28T07:25:25.000Z,148
2022-11-28T07:26:41.000Z,152
2022-11-28T07:27:57.000Z,164
2022-11-28T07:29:13.000Z,172
2022-11-28T07:30:29.000Z,188
2022-11-28T07:31:46.000Z,212
2022-11-28T07:33:02.000Z,240
2022-11-28T07:34:18.000Z,280
2022-11-28T07:35:34.000Z,324
2022-11-28T07:36:50.000Z,352
2022-11-28T07:38:07.000Z,380
2022-11-28T07:39:23.000Z,412
2022-11-28T07:40:39.000Z,448
2022-11-28T07:41:54.000Z,476
2022-11-28T07:43:10.000Z,508
2022-11-28T07:44:26.000Z,536
2022-11-28T07:45:43.000Z,560
2022-11-28T07:46:59.000Z,592
2022-11-28T07:48:15.000Z,632
2022-11-28T07:49:31.000Z,672
2022-11-28T07:50:47.000Z,716
2022-11-28T07:52:04.000Z,768
2022-11-28T07:53:20.000Z,816
2022-11-28T07:54:36.000Z,856
2022-11-28T07:55:52.000Z,892
2022-11-28T07:57:08.000Z,928
2022-11-28T07:58:25.000Z,964
2022-11-28T07:59:40.000Z,1012
2022-11-28T08:00:56.000Z,1068
2022-11-28T08:02:12.000Z,1116
2022-11-28T08:03:28.000Z,1184
2022-11-28T08:04:45.000Z,1260
2022-11-28T08:06:01.000Z,1328
2022-11-28T08:07:17.000Z,1380
2022-11-28T08:08:33.000Z,1416
2022-11-28T08:09:49.000Z,1436
2022-11-28T08:11:05.000Z,1464
2022-11-28T08:12:22.000Z,1508
2022-11-28T08:13:38.000Z,1564
2022-11-28T08:14:54.000Z,1612
2022-11-28T08:16:10.000Z,1656
2022-11-28T08:17:25.000Z,1692
2022-11-28T08:18:42.000Z,1732
2022-11-28T08:19:58.000Z,1768
2022-11-28T08:21:14.000Z,1816
2022-11-28T08:22:30.000Z,1872
2022-11-28T08:23:46.000Z,1940
2022-11-28T08:25:03.000Z,2008
2022-11-28T08:26:19.000Z,2076
2022-11-28T08:27:35.000Z,2144
2022-11-28T08:28:51.000Z,2212
2022-11-28T08:30:07.000Z,2264
2022-11-28T08:31:23.000Z,2324
2022-11-28T08:32:40.000Z,2400
2022-11-28T08:33:56.000Z,2488
2022-11-28T08:35:12.000Z,2568
2022-11-28T08:36:28.000Z,2628
2022-11-28T08:37:45.000Z,2676
2022-11-28T08:39:01.000Z,2700
2022-11-28T08:40:17.000Z,2724
2022-11-28T08:41:33.000Z,2720
2022-11-28T08:42:49.000Z,2708
2022-11-28T08:44:06.000Z,2692
2022-11-28T08:45:22.000Z,2708
2022-11-28T08:46:38.000Z,2756
2022-11-28T08:47:54.000Z,2836
2022-11-28T08:49:10.000Z,2940
2022-11-28T08:50:25.000Z,3052
2022-11-28T08:51:42.000Z,3168
2022-11-28T08:52:58.000Z,3272
2022-11-28T08:54:14.000Z,3316
2022-11-28T08:55:30.000Z,3284
2022-11-28T08:56:46.000Z,3208
2022-11-28T08:58:03.000Z,3132
2022-11-28T08:59:19.000Z,3112
2022-11-28T09:00:35.000Z,3124
2022-11-28T09:01:51.000Z,3140
2022-11-28T09:03:07.000Z,3140
2022-11-28T09:04:24.000Z,3120
2022-11-28T09:05:40.000Z,3056
2022-11-28T09:06:55.000Z,2968
2022-11-28T09:08:11.000Z,2872
2022-11-28T09:09:27.000Z,2832
2022-11-28T09:10:44.000Z,2784
2022-11-28T09:12:00.000Z,2756
2022-11-28T09:13:16.000Z,2768
2022-11-28T09:14:32.000Z,2796
2022-11-28T09:15:48.000Z,2856
2022-11-28T09:17:04.000Z,2916
2022-11-28T09:18:21.000Z,2944
2022-11-28T09:19:37.000Z,2960
2022-11-28T09:20:53.000Z,2940
2022-11-28T09:22:09.000Z,2896
2022-11-28T09:23:24.000Z,2856
2022-11-28T09:24:41.000Z,2828
2022-11-28T09:25:57.000Z,2764
2022-11-28T09:27:13.000Z,2692
2022-11-28T09:28:29.000Z,2624
2022-11-28T09:29:45.000Z,2584
2022-11-28T09:31:02.000Z,2592
2022-11-28T09:32:18.000Z,2616
2022-11-28T09:33:34.000Z,2648
2022-11-28T09:34:50.000Z,2676
2022-11-28T09:36:06.000Z,2740
2022-11-28T09:37:22.000Z,2764
2022-11-28T09:38:39.000Z,2776
2022-11-28T09:39:54.000Z,2852
2022-11-28T09:41:10.000Z,2952
2022-11-28T09:42:26.000Z,3028
2022-11-28T09:43:41.000Z,3052
2022-11-28T09:44:58.000Z,3004
2022-11-28T09:46:14.000Z,3000
2022-11-28T09:47:30.000Z,3016
2022-11-28T09:48:46.000Z,2996
2022-11-28T09:50:02.000Z,2972
2022-11-28T09:51:19.000Z,2928
2022-11-28T09:52:35.000Z,2868
2022-11-28T09:53:51.000Z,2816
2022-11-28T09:55:07.000Z,2776
2022-11-28T09:56:23.000Z,2760
2022-11-28T09:57:40.000Z,2840
2022-11-28T09:58:56.000Z,2896
2022-11-28T10:00:11.000Z,2972
2022-11-28T10:01:27.000Z,3056
2022-11-28T10:02:43.000Z,3160
2022-11-28T10:04:00.000Z,3312
2022-11-28T10:05:16.000Z,3436
2022-11-28T10:06:32.000Z,3524
2022-11-28T10:07:48.000Z,3572
2022-11-28T10:09:04.000Z,3552
2022-11-28T10:10:20.000Z,3644
2022-11-28T10:11:37.000Z,3640
2022-11-28T10:12:53.000Z,3564
2022-11-28T10:14:09.000Z,3500
2022-11-28T10:15:25.000Z,3460
2022-11-28T10:16:40.000Z,3476
2022-11-28T10:17:57.000Z,3196
2022-11-28T10:19:13.000Z,2924
2022-11-28T10:20:29.000Z,2780
2022-11-28T10:21:45.000Z,2944
2022-11-28T10:23:01.000Z,3212
2022-11-28T10:24:18.000Z,3316
2022-11-28T10:25:34.000Z,3408
2022-11-28T10:26:50.000Z,3328
2022-11-28T10:28:06.000Z,3384
2022-11-28T10:29:22.000Z,3588
2022-11-28T10:30:38.000Z,3668
2022-11-28T10:31:55.000Z,3472
2022-11-28T10:33:10.000Z,3184
2022-11-28T10:34:26.000Z,2972
2022-11-28T10:35:42.000Z,2980
2022-11-28T10:36:58.000Z,2992
2022-11-28T10:38:15.000Z,3028
2022-11-28T10:39:31.000Z,3212
2022-11-28T10:40:47.000Z,3208
2022-11-28T10:42:03.000Z,3220
2022-11-28T10:43:19.000Z,3136
2022-11-28T10:44:36.000Z,3072
2022-11-28T10:45:52.000Z,3240
2022-11-28T10:47:08.000Z,3320
2022-11-28T10:48:24.000Z,3304
2022-11-28T10:49:39.000Z,3272
2022-11-28T10:50:56.000Z,3372
2022-11-28T10:52:12.000Z,3448
2022-11-28T10:53:28.000Z,3380
2022-11-28T10:54:44.000Z,3444
2022-11-28T10:56:00.000Z,3584
2022-11-28T10:57:16.000Z,3872
2022-11-28T10:58:33.000Z,4016
2022-11-28T10:59:49.000Z,3948
2022-11-28T11:01:05.000Z,3772
2022-11-28T11:02:21.000Z,3636
2022-11-28T11:03:37.000Z,3448
2022-11-28T11:04:54.000Z,3272
2022-11-28T11:06:09.000Z,3184
2022-11-28T11:07:25.000Z,3024
2022-11-28T11:08:41.000Z,2904
2022-11-28T11:09:57.000Z,2896
2022-11-28T11:11:14.000Z,3024
2022-11-28T11:12:30.000Z,3212
2022-11-28T11:13:46.000Z,3332
2022-11-28T11:15:02.000Z,3368
2022-11-28T11:16:18.000Z,3388
2022-11-28T11:17:35.000Z,3452
2022-11-28T11:18:51.000Z,3428
2022-11-28T11:20:07.000Z,3360
2022-11-28T11:21:23.000Z,3428
2022-11-28T11:22:38.000Z,3580
2022-11-28T11:23:54.000Z,3704
2022-11-28T11:25:11.000Z,3664
2022-11-28T11:26:27.000Z,3648
2022-11-28T11:27:43.000Z,3816
2022-11-28T11:28:59.000Z,3888
2022-11-28T11:30:15.000Z,3788
2022-11-28T11:31:32.000Z,3632
2022-11-28T11:32:48.000Z,3588
2022-11-28T11:34:04.000Z,3592
2022-11-28T11:35:20.000Z,3372
2022-11-28T11:36:36.000Z,3220
2022-11-28T11:37:53.000Z,3300
2022-11-28T11:39:08.000Z,3360
2022-11-28T11:40:24.000Z,3200
2022-11-28T11:41:40.000Z,3004
2022-11-28T11:42:56.000Z,2860
2022-11-28T11:44:13.000Z,2860
2022-11-28T11:45:29.000Z,2904
2022-11-28T11:46:45.000Z,2864
2022-11-28T11:48:01.000Z,2840
2022-11-28T11:49:17.000Z,2872
2022-11-28T11:50:33.000Z,2924
2022-11-28T11:51:50.000Z,2952
2022-11-28T11:53:06.000Z,3032
2022-11-28T11:54:22.000Z,3168
2022-11-28T11:55:37.000Z,3196
2022-11-28T11:56:53.000Z,3144
2022-11-28T11:58:10.000Z,3092
2022-11-28T11:59:26.000Z,3024
2022-11-28T12:00:42.000Z,2988
2022-11-28T12:01:58.000Z,2972
2022-11-28T12:03:14.000Z,2976
2022-11-28T12:04:31.000Z,2996
2022-11-28T12:05:47.000Z,2964
2022-11-28T12:07:03.000Z,2880
2022-11-28T12:08:19.000Z,2828
2022-11-28T12:09:35.000Z,2824
2022-11-28T12:10:52.000Z,2868
2022-11-28T12:12:07.000Z,2956
2022-11-28T12:13:23.000Z,2980
2022-11-28T12:14:39.000Z,2936
2022-11-28T12:15:55.000Z,2896
2022-11-28T12:17:11.000Z,2872
2022-11-28T12:18:28.000Z,2844
2022-11-28T12:19:44.000Z,2856
2022-11-28T12:21:00.000Z,2896
2022-11-28T12:22:16.000Z,2936
2022-11-28T12:23:32.000Z,2980
2022-11-28T12:24:49.000Z,3012
2022-11-28T12:26:05.000Z,3012
2022-11-28T12:27:21.000Z,3024
2022-11-28T12:28:36.000Z,3008
2022-11-28T12:29:52.000Z,3100
2022-11-28T12:31:09.000Z,3196
2022-11-28T12:32:25.000Z,3280
2022-11-28T12:33:41.000Z,3404
2022-11-28T12:34:57.000Z,3408
2022-11-28T12:36:13.000Z,3396
2022-11-28T12:37:30.000Z,3408
2022-11-28T12:38:46.000Z,3436
2022-11-28T12:40:02.000Z,3388
2022-11-28T12:41:18.000Z,3280
2022-11-28T12:42:34.000Z,3212
2022-11-28T12:43:50.000Z,3196
2022-11-28T12:45:06.000Z,3184
2022-11-28T12:46:22.000Z,3140
2022-11-28T12:47:38.000Z,3024
2022-11-28T12:48:54.000Z,2884
2022-11-28T12:50:10.000Z,2696
2022-11-28T12:51:27.000Z,2572
2022-11-28T12:52:43.000Z,2480
2022-11-28T12:53:59.000Z,2428
2022-11-28T12:55:15.000Z,2372
2022-11-28T12:56:31.000Z,2328
2022-11-28T12:57:48.000Z,2320
2022-11-28T12:59:04.000Z,2368
2022-11-28T13:00:20.000Z,2432
2022-11-28T13:01:35.000Z,2460
2022-11-28T13:02:51.000Z,2440
2022-11-28T13:04:08.000Z,2368
2022-11-28T13:05:24.000Z,2308
2022-11-28T13:06:40.000Z,2272
2022-11-28T13:07:56.000Z,2260
2022-11-28T13:09:12.000Z,2268
2022-11-28T13:10:28.000Z,2256
2022-11-28T13:11:45.000Z,2220
2022-11-28T13:13:01.000Z,2136
2022-11-28T13:14:17.000Z,2032
2022-11-28T13:15:33.000Z,1916
2022-11-28T13:16:49.000Z,1808
2022-11-28T13:18:05.000Z,1700
2022-11-28T13:19:21.000Z,1600
2022-11-28T13:20:37.000Z,1524
2022-11-28T13:21:53.000Z,1460
2022-11-28T13:23:09.000Z,1400
2022-11-28T13:24:26.000Z,1344
2022-11-28T13:25:42.000Z,1300
2022-11-28T13:26:58.000Z,1288
2022-11-28T13:28:14.000Z,1332
2022-11-28T13:29:30.000Z,1400
2022-11-28T13:30:46.000Z,1464
2022-11-28T13:33:19.000Z,1536
2022-11-28T13:34:34.000Z,1548
2022-11-28T13:35:50.000Z,1632
2022-11-28T13:37:06.000Z,1740
2022-11-28T13:38:23.000Z,1816
2022-11-28T13:39:39.000Z,1920
2022-11-28T13:40:55.000Z,2012
2022-11-28T13:42:11.000Z,2076
2022-11-28T13:43:27.000Z,2104
2022-11-28T13:44:44.000Z,2128
2022-11-28T13:46:00.000Z,2168
2022-11-28T13:47:16.000Z,2308
2022-11-28T13:48:32.000Z,2412
2022-11-28T13:49:48.000Z,2488
2022-11-28T13:51:04.000Z,2524
2022-11-28T13:52:20.000Z,2524
2022-11-28T13:53:36.000Z,2504
2022-11-28T13:54:52.000Z,2484
2022-11-28T13:56:08.000Z,2444
2022-11-28T13:57:24.000Z,2400
2022-11-28T13:58:40.000Z,2388
2022-11-28T13:59:56.000Z,2392
2022-11-28T14:01:12.000Z,2388
2022-11-28T14:02:28.000Z,2432
2022-11-28T14:03:44.000Z,2432
2022-11-28T14:05:01.000Z,2392
2022-11-28T14:06:17.000Z,2356
2022-11-28T14:07:33.000Z,2320
2022-11-28T14:08:49.000Z,2280
2022-11-28T14:10:05.000Z,2256
2022-11-28T14:11:22.000Z,2252
2022-11-28T14:12:38.000Z,2256
2022-11-28T14:13:54.000Z,2220
2022-11-28T14:15:09.000Z,2180
2022-11-28T14:16:25.000Z,2104
2022-11-28T14:17:42.000Z,2008
2022-11-28T14:18:58.000Z,1948
2022-11-28T14:20:14.000Z,1920
2022-11-28T14:21:30.000Z,1892
2022-11-28T14:22:46.000Z,1864
2022-11-28T14:24:03.000Z,1852
2022-11-28T14:25:19.000Z,1868
2022-11-28T14:26:35.000Z,1916
2022-11-28T14:27:51.000Z,1936
2022-11-28T14:29:07.000Z,1920
2022-11-28T14:30:23.000Z,1844
2022-11-28T14:31:39.000Z,1748
2022-11-28T14:32:55.000Z,1680
2022-11-28T14:34:11.000Z,1664
2022-11-28T14:35:27.000Z,1628
2022-11-28T14:36:43.000Z,1588
2022-11-28T14:38:00.000Z,1528
2022-11-28T14:39:16.000Z,1476
2022-11-28T14:40:32.000Z,1420
2022-11-28T14:41:48.000Z,1364
2022-11-28T14:43:04.000Z,1308
2022-11-28T14:44:21.000Z,1248
2022-11-28T14:45:37.000Z,1216
2022-11-28T14:46:53.000Z,1180
2022-11-28T14:48:08.000Z,1136
2022-11-28T14:49:24.000Z,1064
2022-11-28T14:50:41.000Z,1028
2022-11-28T14:51:57.000Z,936
2022-11-28T14:53:13.000Z,864
2022-11-28T14:54:29.000Z,792
2022-11-28T14:55:45.000Z,732
2022-11-28T14:57:01.000Z,692
2022-11-28T14:58:18.000Z,628
2022-11-28T14:59:34.000Z,600
2022-11-28T15:00:50.000Z,584
2022-11-28T15:02:06.000Z,560
2022-11-28T15:03:22.000Z,556
2022-11-28T15:04:38.000Z,528
2022-11-28T15:05:54.000Z,460
2022-11-28T15:07:10.000Z,424
2022-11-28T15:08:26.000Z,384
2022-11-28T15:09:42.000Z,360
2022-11-28T15:10:59.000Z,320
2022-11-28T15:12:15.000Z,272
2022-11-28T15:13:31.000Z,224
2022-11-28T15:14:47.000Z,176
2022-11-28T15:16:03.000Z,160
2022-11-28T15:17:19.000Z,128
2022-11-28T15:18:36.000Z,108
2022-11-28T15:19:52.000Z,88
2022-11-28T15:21:07.000Z,88
2022-11-28T15:22:23.000Z,80
2022-11-28T15:23:39.000Z,76
2022-11-28T15:24:56.000Z,68
2022-11-28T15:26:12.000Z,60
2022-11-28T15:27:28.000Z,48
2022-11-28T15:28:44.000Z,40
2022-11-28T15:30:00.000Z,40
2022-11-28T15:31:17.000Z,32
2022-11-28T15:32:33.000Z,24
2022-11-28T15:33:49.000Z,24
2022-11-28T15:35:05.000Z,20
2022-11-28T15:36:21.000Z,16
2022-11-28T15:37:37.000Z,12
2022-11-28T15:38:53.000Z,12
2022-11-28T15:40:09.000Z,12
2022-11-28T15:41:25.000Z,8
2022-11-28T15:42:41.000Z,8
2022-11-28T15:43:57.000Z,8
2022-11-28T15:45:14.000Z,4
2022-11-28T15:46:30.000Z,4
2022-11-28T15:47:46.000Z,4
2022-11-28T15:49:02.000Z,4
2022-11-28T15:50:18.000Z,4
2022-11-28T15:51:35.000Z,0
2022-11-28T15:52:51.000Z,0
2022-11-28T15:54:06.000Z,4
2022-11-28T15:55:22.000Z,0
2022-11-28T15:56:38.000Z,0
2022-11-28T15:57:55.000Z,0
2022-11-28T15:59:11.000Z,0
2022-11-28T16:00:27.000Z,0
2022-11-28T16:01:43.000Z,0
2022-11-28T16:02:59.000Z,0
2022-11-28T16:04:16.000Z,0
2022-11-28T16:05:32.000Z,0
2022-11-28T16:06:48.000Z,0
2022-11-28T16:08:04.000Z,0
2022-11-28T16:09:20.000Z,0
2022-11-28T16:10:35.000Z,0
2022-11-28T16:11:52.000Z,0
2022-11-28T16:13:08.000Z,0
2022-11-28T16:14:24.000Z,0
2022-11-28T16:15:40.000Z,0
2022-11-28T16:16:56.000Z,0
2022-11-28T16:18:13.000Z,0
2022-11-28T16:19:29.000Z,0
2022-11-28T16:20:45.000Z,0
2022-11-28T16:22:01.000Z,0
2022-11-28T16:23:17.000Z,0
2022-11-28T16:24:34.000Z,0
2022-11-28T16:25:50.000Z,0
2022-11-28T16:27:05.000Z,0
2022-11-28T16:28:21.000Z,0
2022-11-28T16:29:37.000Z,0
2022-11-28T16:30:54.000Z,0
2022-11-28T16:32:10.000Z,0
2022-11-28T16:33:26.000Z,0
2022-11-28T16:34:42.000Z,0
2022-11-28T16:35:58.000Z,0
2022-11-28T16:37:14.000Z,0
2022-11-28T16:38:31.000Z,0
2022-11-28T16:39:47.000Z,0
2022-11-28T16:41:03.000Z,0
2022-11-28T16:42:19.000Z,0
2022-11-28T16:43:34.000Z,0
2022-11-28T16:44:51.000Z,0
2022-11-28T16:46:07.000Z,0
2022-11-28T16:47:23.000Z,0
2022-11-28T16:48:39.000Z,0
2022-11-28T16:49:55.000Z,0
2022-11-28T16:51:12.000Z,0
2022-11-28T16:52:28.000Z,0
2022-11-28T16:53:44.000Z,0
2022-11-28T16:55:00.000Z,0
2022-11-28T16:56:16.000Z,0
2022-11-28T16:57:33.000Z,0
2022-11-28T16:58:49.000Z,0
2022-11-28T17:00:04.000Z,0
2022-11-28T17:01:20.000Z,0
2022-11-28T17:02:36.000Z,0
2022-11-28T17:03:52.000Z,0
2022-11-28T17:05:09.000Z,0
2022-11-28T17:06:25.000Z,0
2022-11-28T17:07:41.000Z,0
2022-11-28T17:08:57.000Z,0
2022-11-28T17:10:13.000Z,0
2022-11-28T17:11:30.000Z,0
2022-11-28T17:12:46.000Z,0
2022-11-28T17:14:02.000Z,0
2022-11-28T17:15:18.000Z,0
2022-11-28T17:16:33.000Z,0
2022-11-28T17:17:50.000Z,0
2022-11-28T17:19:06.000Z,0
2022-11-28T17:20:22.000Z,0
2022-11-28T17:21:38.000Z,0
2022-11-28T17:22:54.000Z,0
2022-11-28T17:24:11.000Z,0
2022-11-28T17:25:27.000Z,0
2022-11-28T17:26:43.000Z,0
2022-11-28T17:27:59.000Z,0
2022-11-28T17:29:15.000Z,0
2022-11-28T17:30:31.000Z,0
2022-11-28T17:31:48.000Z,0
2022-11-28T17:33:03.000Z,0
2022-11-28T17:34:19.000Z,0
2022-11-28T17:35:35.000Z,0
2022-11-28T17:36:51.000Z,0
2022-11-28T17:38:08.000Z,0
2022-11-28T17:39:24.000Z,0
2022-11-28T17:40:40.000Z,0
2022-11-28T17:41:56.000Z,0
2022-11-28T17:43:12.000Z,0
2022-11-28T17:44:29.000Z,0
2022-11-28T17:45:45.000Z,0
2022-11-28T17:47:01.000Z,0
2022-11-28T17:48:17.000Z,0
2022-11-28T17:49:32.000Z,0
2022-11-28T17:50:48.000Z,0
2022-11-28T17:52:05.000Z,0
2022-11-28T17:53:21.000Z,0